sensor_id;sensor_type;location;lat;lon;timestamp;P1;durP1;ratioP1;P2;durP2;ratioP2
23258;SDS011;11798;51.528;7.240;2023-04-03T15:48:27;3.57;;;1.70;;
23258;SDS011;11798;51.528;7.240;2023-04-03T15:50:53;4.00;;;1.50;;
23258;SDS011;11798;51.528;7.240;2023-04-03T15:53:19;5.07;;;1.60;;
23258;SDS011;11798;51.528;7.240;2023-04-03T15:55:45;4.20;;;1.73;;
23258;SDS011;11798;51.528;7.240;2023-04-03T15:58:11;3.73;;;1.70;;
23258;SDS011;11798;51.528;7.240;2023-04-03T16:00:37;2.50;;;1.50;;
23258;SDS011;11798;51.528;7.240;2023-04-03T16:03:08;4.13;;;1.73;;
23258;SDS011;11798;51.528;7.240;2023-04-03T16:05:41;3.60;;;1.60;;
23258;SDS011;11798;51.528;7.240;2023-04-03T16:08:07;5.30;;;1.90;;
23258;SDS011;11798;51.528;7.240;2023-04-03T16:10:33;4.47;;;1.90;;
23258;SDS011;11798;51.528;7.240;2023-04-03T16:13:01;3.73;;;1.60;;
23258;SDS011;11798;51.528;7.240;2023-04-03T16:15:27;5.73;;;1.60;;
23258;SDS011;11798;51.528;7.240;2023-04-03T16:17:53;2.67;;;1.60;;
23258;SDS011;11798;51.528;7.240;2023-04-03T16:20:19;4.17;;;1.60;;
23258;SDS011;11798;51.528;7.240;2023-04-03T16:22:46;4.87;;;1.93;;
23258;SDS011;11798;51.528;7.240;2023-04-03T16:25:13;3.20;;;1.80;;
23258;SDS011;11798;51.528;7.240;2023-04-03T16:27:38;3.47;;;1.43;;
23258;SDS011;11798;51.528;7.240;2023-04-03T16:30:05;2.67;;;1.50;;
23258;SDS011;11798;51.528;7.240;2023-04-03T21:36:56;5.70;;;2.33;;
23258;SDS011;11798;51.528;7.240;2023-04-03T21:39:29;7.40;;;2.10;;
23258;SDS011;11798;51.528;7.240;2023-04-03T21:41:55;6.10;;;2.40;;
23258;SDS011;11798;51.528;7.240;2023-04-03T21:44:21;4.13;;;2.20;;
23258;SDS011;11798;51.528;7.240;2023-04-03T21:46:48;5.07;;;3.03;;
23258;SDS011;11798;51.528;7.240;2023-04-03T21:49:17;5.87;;;2.43;;
23258;SDS011;11798;51.528;7.240;2023-04-03T21:51:43;7.37;;;2.30;;
23258;SDS011;11798;51.528;7.240;2023-04-03T21:54:09;6.33;;;2.53;;
23258;SDS011;11798;51.528;7.240;2023-04-03T21:56:35;5.87;;;2.63;;
23258;SDS011;11798;51.528;7.240;2023-04-03T21:59:00;5.23;;;2.60;;
23258;SDS011;11798;51.528;7.240;2023-04-03T22:01:29;6.13;;;2.50;;
23258;SDS011;11798;51.528;7.240;2023-04-03T22:03:56;8.07;;;2.47;;
23258;SDS011;11798;51.528;7.240;2023-04-03T22:06:23;9.77;;;3.27;;
23258;SDS011;11798;51.528;7.240;2023-04-03T22:08:49;6.63;;;2.53;;
23258;SDS011;11798;51.528;7.240;2023-04-03T22:11:15;5.50;;;2.70;;
23258;SDS011;11798;51.528;7.240;2023-04-03T22:13:41;5.03;;;2.47;;
23258;SDS011;11798;51.528;7.240;2023-04-03T22:16:08;5.77;;;2.83;;
23258;SDS011;11798;51.528;7.240;2023-04-03T22:18:37;7.07;;;2.90;;
23258;SDS011;11798;51.528;7.240;2023-04-03T22:21:03;5.33;;;2.70;;
23258;SDS011;11798;51.528;7.240;2023-04-03T22:23:32;10.27;;;3.23;;
23258;SDS011;11798;51.528;7.240;2023-04-03T22:28:31;6.60;;;2.90;;
23258;SDS011;11798;51.528;7.240;2023-04-03T22:31:02;5.03;;;2.63;;
23258;SDS011;11798;51.528;7.240;2023-04-03T22:33:35;5.87;;;2.60;;
23258;SDS011;11798;51.528;7.240;2023-04-03T22:36:02;5.27;;;3.27;;
23258;SDS011;11798;51.528;7.240;2023-04-03T22:38:29;5.70;;;3.13;;
23258;SDS011;11798;51.528;7.240;2023-04-03T22:40:59;4.53;;;2.80;;
23258;SDS011;11798;51.528;7.240;2023-04-03T22:43:25;6.37;;;3.27;;
23258;SDS011;11798;51.528;7.240;2023-04-03T22:45:52;7.70;;;2.93;;
23258;SDS011;11798;51.528;7.240;2023-04-03T22:48:17;6.80;;;2.80;;
23258;SDS011;11798;51.528;7.240;2023-04-03T22:50:43;5.87;;;2.67;;
23258;SDS011;11798;51.528;7.240;2023-04-03T22:53:10;5.97;;;3.13;;
23258;SDS011;11798;51.528;7.240;2023-04-03T22:55:36;7.33;;;3.17;;
23258;SDS011;11798;51.528;7.240;2023-04-03T22:58:02;4.70;;;3.20;;
23258;SDS011;11798;51.528;7.240;2023-04-03T23:00:28;7.17;;;3.10;;
23258;SDS011;11798;51.528;7.240;2023-04-03T23:02:54;4.70;;;2.73;;
23258;SDS011;11798;51.528;7.240;2023-04-03T23:05:20;8.30;;;3.87;;
23258;SDS011;11798;51.528;7.240;2023-04-03T23:07:46;5.60;;;3.50;;
23258;SDS011;11798;51.528;7.240;2023-04-03T23:10:11;11.20;;;4.10;;
23258;SDS011;11798;51.528;7.240;2023-04-03T23:12:37;8.77;;;3.77;;
23258;SDS011;11798;51.528;7.240;2023-04-03T23:15:04;7.30;;;3.43;;
23258;SDS011;11798;51.528;7.240;2023-04-03T23:17:31;10.23;;;3.83;;
23258;SDS011;11798;51.528;7.240;2023-04-03T23:19:59;5.90;;;3.40;;
23258;SDS011;11798;51.528;7.240;2023-04-03T23:22:25;9.30;;;3.87;;
23258;SDS011;11798;51.528;7.240;2023-04-03T23:24:51;11.03;;;4.63;;
23258;SDS011;11798;51.528;7.240;2023-04-03T23:27:17;11.20;;;5.20;;
23258;SDS011;11798;51.528;7.240;2023-04-03T23:29:42;9.53;;;5.20;;
23258;SDS011;11798;51.528;7.240;2023-04-03T23:32:08;10.10;;;4.80;;
23258;SDS011;11798;51.528;7.240;2023-04-03T23:34:34;13.47;;;5.53;;
23258;SDS011;11798;51.528;7.240;2023-04-03T23:37:00;14.67;;;6.50;;
23258;SDS011;11798;51.528;7.240;2023-04-03T23:39:26;13.37;;;6.07;;
23258;SDS011;11798;51.528;7.240;2023-04-03T23:41:51;14.07;;;5.87;;
23258;SDS011;11798;51.528;7.240;2023-04-03T23:44:18;11.57;;;6.27;;
23258;SDS011;11798;51.528;7.240;2023-04-03T23:46:44;14.60;;;5.20;;
23258;SDS011;11798;51.528;7.240;2023-04-03T23:49:10;14.33;;;5.40;;
23258;SDS011;11798;51.528;7.240;2023-04-03T23:51:36;13.13;;;4.80;;
23258;SDS011;11798;51.528;7.240;2023-04-03T23:54:01;14.80;;;6.00;;
23258;SDS011;11798;51.528;7.240;2023-04-03T23:56:28;15.80;;;6.73;;
23258;SDS011;11798;51.528;7.240;2023-04-03T23:58:55;17.23;;;5.60;;
